Time;durP1;ratioP1;P1;durP2;ratioP2;P2;SDS_P1;SDS_P2;PMS_P1;PMS_P2;Temp;Humidity;BMP_temperature;BMP_pressure;BME280_temperature;BME280_humidity;BME280_pressure;Samples;Min_cycle;Max_cycle;Signal;HPM_P1;HPM_P2
2022/11/28 00:01:13;;;;;;;27.83;3.92;;;9.50;99.90;;;;;;5023922;28;20029;-75
2022/11/28 00:03:39;;;;;;;27.40;3.80;;;9.50;99.90;;;;;;5014188;28;20030;-75
2022/11/28 00:06:07;;;;;;;29.80;4.32;;;9.40;99.90;;;;;;5005998;28;20025;-77
2022/11/28 00:08:34;;;;;;;29.52;5.07;;;9.40;99.90;;;;;;5013836;28;20048;-76
2022/11/28 00:11:09;;;;;;;23.15;4.60;;;9.40;99.90;;;;;;5025891;28;20029;-76
2022/11/28 00:13:35;;;;;;;30.50;4.65;;;9.30;99.90;;;;;;5047284;28;20702;-77
2022/11/28 00:16:04;;;;;;;28.92;4.65;;;9.30;99.90;;;;;;5049323;28;20040;-75
2022/11/28 00:18:30;;;;;;;25.30;3.55;;;9.30;99.90;;;;;;5038061;28;20022;-76
2022/11/28 00:21:00;;;;;;;19.98;3.58;;;9.30;99.90;;;;;;5032576;28;20056;-76
2022/11/28 00:23:27;;;;;;;30.02;4.15;;;9.30;99.90;;;;;;5039827;28;20052;-76
2022/11/28 00:25:57;;;;;;;39.47;5.25;;;9.20;99.90;;;;;;5036276;28;20108;-77
2022/11/28 00:28:23;;;;;;;32.95;4.68;;;9.20;99.90;;;;;;5042994;28;20051;-77
2022/11/28 00:30:49;;;;;;;39.92;4.57;;;9.10;99.90;;;;;;5036977;28;20033;-76
2022/11/28 00:33:14;;;;;;;29.33;3.67;;;9.10;99.90;;;;;;5030637;28;20033;-76
2022/11/28 00:35:40;;;;;;;32.60;4.57;;;9.10;99.90;;;;;;5047607;28;20034;-74
2022/11/28 00:38:05;;;;;;;25.50;3.65;;;9.00;99.90;;;;;;5032695;28;20600;-75
2022/11/28 00:40:31;;;;;;;26.75;3.92;;;9.00;99.90;;;;;;5029992;28;20068;-76
2022/11/28 00:42:56;;;;;;;20.75;3.10;;;9.00;99.90;;;;;;5033388;28;20037;-76
2022/11/28 00:45:22;;;;;;;24.63;3.50;;;8.90;99.90;;;;;;5034921;28;20394;-75
2022/11/28 00:47:48;;;;;;;28.52;3.95;;;8.90;99.90;;;;;;5029962;28;20041;-75
2022/11/28 00:50:14;;;;;;;24.35;4.07;;;8.80;99.90;;;;;;5030583;28;20208;-74
2022/11/28 00:52:39;;;;;;;26.80;3.75;;;8.60;99.90;;;;;;5033717;28;20103;-76
2022/11/28 00:55:05;;;;;;;32.13;4.22;;;8.60;99.90;;;;;;5028026;28;20068;-76
2022/11/28 00:57:31;;;;;;;25.92;3.78;;;8.50;99.90;;;;;;5031716;28;20029;-76
2022/11/28 00:59:56;;;;;;;28.88;4.22;;;8.50;99.90;;;;;;5031638;28;20033;-76
2022/11/28 01:02:22;;;;;;;31.15;5.15;;;8.50;99.90;;;;;;5047454;28;20033;-75
2022/11/28 01:04:47;;;;;;;30.85;4.40;;;8.50;99.90;;;;;;5032580;28;20139;-74
2022/11/28 01:07:13;;;;;;;34.42;4.65;;;8.40;99.90;;;;;;5017098;28;20030;-76
2022/11/28 01:09:39;;;;;;;36.08;4.93;;;8.40;99.90;;;;;;5008906;28;20044;-76
2022/11/28 01:12:04;;;;;;;32.42;4.95;;;8.40;99.90;;;;;;5025915;28;20025;-75
2022/11/28 01:14:30;;;;;;;38.42;4.90;;;8.30;99.90;;;;;;5023929;28;20036;-76
2022/11/28 01:16:56;;;;;;;29.35;4.38;;;8.30;99.90;;;;;;5012881;28;20041;-75
2022/11/28 01:19:21;;;;;;;24.60;4.75;;;8.20;99.90;;;;;;5011244;28;20068;-75
2022/11/28 01:21:47;;;;;;;28.73;3.55;;;8.20;99.90;;;;;;5024652;28;20028;-75
2022/11/28 01:24:13;;;;;;;30.25;4.07;;;8.10;99.90;;;;;;5036761;28;20446;-75
2022/11/28 01:26:39;;;;;;;23.98;3.85;;;8.10;99.90;;;;;;5027307;28;20060;-74
2022/11/28 01:29:05;;;;;;;32.42;4.25;;;8.00;99.90;;;;;;5031559;28;20091;-75
2022/11/28 01:31:31;;;;;;;18.80;3.05;;;7.90;99.90;;;;;;5038171;28;20033;-75
2022/11/28 01:33:57;;;;;;;31.00;4.50;;;7.80;99.90;;;;;;5029377;28;20025;-76
2022/11/28 01:36:23;;;;;;;30.13;4.28;;;7.80;99.90;;;;;;5030909;28;20061;-74
2022/11/28 01:38:49;;;;;;;22.50;3.72;;;7.70;99.90;;;;;;5032744;28;20029;-76
2022/11/28 01:41:17;;;;;;;32.63;4.00;;;7.80;99.90;;;;;;5033733;28;21379;-76
2022/11/28 01:44:13;;;;;;;31.88;4.28;;;7.80;99.90;;;;;;5031122;28;20100;-74
2022/11/28 01:46:39;;;;;;;31.60;4.10;;;7.70;99.90;;;;;;5032029;28;20102;-75
2022/11/28 01:49:13;;;;;;;36.42;4.05;;;7.60;99.90;;;;;;5029708;28;20108;-75
2022/11/28 01:51:44;;;;;;;21.58;4.68;;;7.50;99.90;;;;;;5028165;28;20076;-75
2022/11/28 01:54:10;;;;;;;28.02;4.15;;;7.40;99.90;;;;;;5028813;28;20037;-74
2022/11/28 01:56:49;;;;;;;37.60;4.43;;;7.30;99.90;;;;;;5035456;28;20096;-76
2022/11/28 01:59:16;;;;;;;31.95;4.28;;;7.30;99.90;;;;;;5021507;28;20031;-75
2022/11/28 02:01:43;;;;;;;41.92;4.78;;;7.30;99.90;;;;;;5017970;28;20491;-76
2022/11/28 02:04:09;;;;;;;24.20;3.90;;;7.30;99.90;;;;;;5035651;28;20106;-76
2022/11/28 02:06:34;;;;;;;35.75;6.00;;;7.40;99.90;;;;;;5046250;28;20045;-75
2022/11/28 02:09:00;;;;;;;36.67;4.38;;;7.40;99.90;;;;;;5027986;28;20033;-75
2022/11/28 02:11:47;;;;;;;33.67;5.00;;;7.50;99.90;;;;;;5034062;28;20127;-75
2022/11/28 02:14:34;;;;;;;32.75;5.03;;;7.50;99.90;;;;;;5040229;28;20026;-74
2022/11/28 02:17:31;;;;;;;28.98;4.07;;;7.50;99.90;;;;;;5027799;28;20041;-75
2022/11/28 02:20:15;;;;;;;19.88;2.95;;;7.60;99.90;;;;;;5045846;28;20040;-76
2022/11/28 02:23:19;;;;;;;21.30;2.95;;;7.60;99.90;;;;;;5033835;28;20121;-75
2022/11/28 02:26:16;;;;;;;18.88;2.90;;;7.60;99.90;;;;;;5030162;28;20120;-75
2022/11/28 02:29:14;;;;;;;9.38;2.47;;;7.60;99.90;;;;;;5033733;28;20030;-75
2022/11/28 02:32:04;;;;;;;14.93;2.70;;;7.50;99.90;;;;;;5023166;28;20044;-75
2022/11/28 02:34:48;;;;;;;14.20;3.00;;;7.40;99.90;;;;;;5039403;28;20036;-75
2022/11/28 02:37:19;;;;;;;14.43;2.70;;;7.40;99.90;;;;;;5017120;28;20038;-74
2022/11/28 02:40:21;;;;;;;15.02;2.92;;;7.30;99.90;;;;;;5032974;28;20060;-75
2022/11/28 02:43:08;;;;;;;22.65;3.33;;;7.20;99.90;;;;;;5049825;28;20033;-75
2022/11/28 02:45:39;;;;;;;12.43;2.83;;;7.20;99.90;;;;;;5029825;28;20161;-76
2022/11/28 02:48:18;;;;;;;9.20;2.15;;;7.20;99.90;;;;;;5029625;28;20113;-76
2022/11/28 02:50:54;;;;;;;10.90;1.65;;;7.20;99.90;;;;;;5033657;28;20075;-74
2022/11/28 02:53:23;;;;;;;19.52;2.20;;;7.20;99.90;;;;;;5032658;28;20029;-75
2022/11/28 02:55:51;;;;;;;28.20;1.85;;;7.10;99.90;;;;;;5040999;28;20463;-75
2022/11/28 02:58:17;;;;;;;16.20;1.33;;;7.10;99.90;;;;;;5035750;28;20038;-75
2022/11/28 03:00:45;;;;;;;12.43;1.60;;;7.10;99.90;;;;;;5043877;28;20037;-75
2022/11/28 03:03:22;;;;;;;53.05;4.18;;;7.10;99.90;;;;;;5042495;28;20498;-74
2022/11/28 03:05:59;;;;;;;12.10;1.83;;;7.10;99.90;;;;;;5044834;28;20040;-74
2022/11/28 03:08:41;;;;;;;14.45;2.58;;;7.10;99.90;;;;;;5043304;28;20052;-75
2022/11/28 03:11:31;;;;;;;10.93;2.38;;;7.20;99.90;;;;;;5023123;28;20033;-74
2022/11/28 03:14:12;;;;;;;11.30;2.15;;;7.20;99.90;;;;;;5029637;28;20407;-74
2022/11/28 03:16:49;;;;;;;18.27;2.33;;;7.30;99.90;;;;;;5042160;28;20067;-75
2022/11/28 03:19:32;;;;;;;14.25;1.70;;;7.40;99.90;;;;;;5034985;28;20056;-75
2022/11/28 03:21:58;;;;;;;15.02;2.60;;;7.40;99.90;;;;;;5039892;28;20041;-74
2022/11/28 03:24:24;;;;;;;11.65;2.30;;;7.40;99.90;;;;;;5044079;28;20382;-74
2022/11/28 03:27:01;;;;;;;17.30;2.78;;;7.40;99.90;;;;;;5041709;28;20391;-74
2022/11/28 03:29:59;;;;;;;14.35;2.63;;;7.30;99.90;;;;;;5032232;28;20086;-73
2022/11/28 03:32:29;;;;;;;14.15;2.30;;;7.30;99.90;;;;;;5044276;28;20092;-75
2022/11/28 03:35:18;;;;;;;14.35;2.72;;;7.20;99.90;;;;;;5021871;28;20556;-74
2022/11/28 03:37:59;;;;;;;12.20;2.70;;;7.30;99.90;;;;;;5027200;28;20116;-75
2022/11/28 03:40:29;;;;;;;24.13;2.85;;;7.30;99.90;;;;;;5026054;28;20041;-74
2022/11/28 03:43:08;;;;;;;;;;;7.30;99.90;;;;;;5027434;28;20034;-75
2022/11/28 03:45:40;;;;;;;18.52;2.47;;;7.30;99.90;;;;;;5028168;28;19932;-75
2022/11/28 03:48:14;;;;;;;17.05;3.28;;;7.30;99.90;;;;;;5034684;28;20039;-75
2022/11/28 03:51:00;;;;;;;15.35;2.88;;;7.40;99.90;;;;;;5043386;28;20038;-75
2022/11/28 03:53:34;;;;;;;10.13;2.25;;;7.40;99.90;;;;;;5037164;28;20041;-74
2022/11/28 03:56:13;;;;;;;14.88;2.83;;;7.40;99.90;;;;;;5038538;28;20026;-75
2022/11/28 03:58:53;;;;;;;22.58;3.72;;;7.50;99.90;;;;;;5037182;28;20100;-75
2022/11/28 04:01:42;;;;;;;24.55;4.40;;;7.50;99.90;;;;;;5034548;28;20563;-74
2022/11/28 04:04:37;;;;;;;13.33;3.10;;;7.50;99.90;;;;;;5051124;28;20064;-75
2022/11/28 04:07:21;;;;;;;21.50;3.58;;;7.50;99.90;;;;;;5006206;28;20310;-75
2022/11/28 04:09:52;;;;;;;20.13;3.42;;;7.50;99.90;;;;;;5029727;28;20494;-75
2022/11/28 04:12:33;;;;;;;19.40;3.65;;;7.40;99.90;;;;;;5038686;28;20487;-75
2022/11/28 04:15:10;;;;;;;16.27;3.30;;;7.30;99.90;;;;;;5035110;28;20510;-75
2022/11/28 04:17:59;;;;;;;22.80;3.92;;;7.30;99.90;;;;;;5029519;28;20427;-75
2022/11/28 04:20:33;;;;;;;20.20;4.82;;;7.30;99.90;;;;;;5037773;28;20052;-75
2022/11/28 04:23:11;;;;;;;25.13;3.97;;;7.30;99.90;;;;;;5032008;28;20025;-74
2022/11/28 04:25:41;;;;;;;21.70;4.00;;;7.20;99.90;;;;;;5033860;28;20021;-75
2022/11/28 04:28:12;;;;;;;19.70;3.10;;;7.10;99.90;;;;;;5067081;28;20041;-75
2022/11/28 04:30:41;;;;;;;15.02;3.38;;;7.10;99.90;;;;;;5035998;28;20045;-75
2022/11/28 04:33:10;;;;;;;17.60;3.42;;;7.20;99.90;;;;;;5041691;28;20471;-75
2022/11/28 04:35:49;;;;;;;16.67;3.58;;;7.10;99.90;;;;;;5042860;28;20021;-76
2022/11/28 04:38:15;;;;;;;21.40;3.28;;;7.10;99.90;;;;;;5034816;28;20068;-75
2022/11/28 04:40:47;;;;;;;20.88;3.63;;;7.00;99.90;;;;;;5032533;28;20024;-75
2022/11/28 04:43:20;;;;;;;27.77;4.20;;;6.90;99.90;;;;;;5039204;28;20076;-74
2022/11/28 04:45:52;;;;;;;15.30;3.60;;;6.80;99.90;;;;;;5072686;28;20033;-74
2022/11/28 04:48:19;;;;;;;21.08;3.67;;;6.80;99.90;;;;;;5040315;28;20131;-75
2022/11/28 04:51:03;;;;;;;24.33;3.90;;;6.80;99.90;;;;;;5038592;28;20029;-75
2022/11/28 04:53:33;;;;;;;17.58;2.95;;;6.70;99.90;;;;;;5039961;28;20040;-74
2022/11/28 04:56:12;;;;;;;25.83;3.58;;;6.70;99.90;;;;;;5032662;28;20447;-75
2022/11/28 04:58:42;;;;;;;38.08;3.70;;;6.70;99.90;;;;;;5031257;28;20057;-75
2022/11/28 05:01:11;;;;;;;44.20;4.13;;;6.70;99.90;;;;;;5039665;28;20115;-75
2022/11/28 05:03:38;;;;;;;29.67;3.90;;;6.60;99.90;;;;;;5038106;28;20021;-74
2022/11/28 05:06:04;;;;;;;16.48;3.28;;;6.50;99.90;;;;;;5066520;28;20048;-75
2022/11/28 05:08:30;;;;;;;20.92;2.75;;;6.50;99.90;;;;;;5045335;28;20086;-75
2022/11/28 05:10:56;;;;;;;37.45;4.05;;;6.40;99.90;;;;;;5035942;28;20029;-75
2022/11/28 05:13:21;;;;;;;16.95;3.35;;;6.40;99.90;;;;;;5040281;28;20067;-74
2022/11/28 05:15:47;;;;;;;30.67;4.43;;;6.40;99.90;;;;;;5033518;28;20036;-74
2022/11/28 05:18:13;;;;;;;32.45;3.72;;;6.50;99.90;;;;;;5034282;28;20040;-75
2022/11/28 05:20:39;;;;;;;28.00;3.58;;;6.50;99.90;;;;;;5031074;28;20082;-73
2022/11/28 05:23:05;;;;;;;29.65;4.00;;;6.60;99.90;;;;;;5035269;28;20034;-74
2022/11/28 05:25:31;;;;;;;4.47;2.00;;;6.60;99.90;;;;;;5034013;28;20029;-75
2022/11/28 05:27:56;;;;;;;21.75;2.30;;;6.60;99.90;;;;;;5036570;28;20664;-75
2022/11/28 05:30:22;;;;;;;16.33;2.67;;;6.60;99.90;;;;;;5036025;28;20037;-75
2022/11/28 05:32:47;;;;;;;12.35;2.42;;;6.50;99.90;;;;;;5034254;28;20032;-75
2022/11/28 05:35:13;;;;;;;14.38;2.20;;;6.50;99.90;;;;;;5034132;28;20026;-73
2022/11/28 05:37:39;;;;;;;12.90;2.05;;;6.50;99.90;;;;;;5035851;28;20131;-75
2022/11/28 05:40:05;;;;;;;10.13;2.35;;;6.50;99.90;;;;;;5039870;28;20028;-74
2022/11/28 05:42:33;;;;;;;15.23;2.40;;;6.40;99.90;;;;;;5024921;28;20044;-74
2022/11/28 05:44:59;;;;;;;16.85;2.40;;;6.40;99.90;;;;;;5036345;28;20060;-75
2022/11/28 05:47:24;;;;;;;13.30;2.40;;;6.40;99.90;;;;;;5039481;28;20387;-75
2022/11/28 05:49:50;;;;;;;18.05;2.75;;;6.30;99.90;;;;;;5026665;28;20029;-75
2022/11/28 05:52:16;;;;;;;17.20;2.70;;;6.30;99.90;;;;;;5031297;28;20041;-75
2022/11/28 05:54:42;;;;;;;23.73;3.22;;;6.30;99.90;;;;;;5037839;28;20033;-76
2022/11/28 05:57:07;;;;;;;8.77;2.25;;;6.30;99.90;;;;;;5030741;28;20857;-75
2022/11/28 05:59:33;;;;;;;26.70;3.00;;;6.30;99.90;;;;;;5032505;28;20029;-75
2022/11/28 06:01:59;;;;;;;42.47;3.28;;;6.40;99.90;;;;;;5035950;28;20025;-76
2022/11/28 06:04:25;;;;;;;18.08;3.55;;;6.50;99.90;;;;;;5029148;28;20078;-75
2022/11/28 06:06:51;;;;;;;20.40;3.50;;;6.50;99.90;;;;;;5033830;28;20064;-75
2022/11/28 06:09:17;;;;;;;20.50;3.53;;;6.60;99.90;;;;;;5028027;28;20578;-75
2022/11/28 06:11:43;;;;;;;24.00;4.13;;;6.60;99.90;;;;;;5022273;28;20038;-75
2022/11/28 06:14:10;;;;;;;14.77;3.45;;;6.60;99.90;;;;;;5030159;28;20034;-75
2022/11/28 06:16:35;;;;;;;15.18;4.07;;;6.60;99.90;;;;;;5030654;28;20052;-74
2022/11/28 06:19:04;;;;;;;11.77;3.38;;;6.60;99.90;;;;;;5027382;28;20477;-74
2022/11/28 06:21:30;;;;;;;13.43;3.83;;;6.60;99.90;;;;;;5037840;28;20033;-74
2022/11/28 06:23:57;;;;;;;11.73;3.88;;;6.50;99.90;;;;;;5025588;28;20026;-74
2022/11/28 06:26:24;;;;;;;14.68;4.03;;;6.50;99.90;;;;;;5023390;28;20060;-77
2022/11/28 06:28:50;;;;;;;13.13;4.03;;;6.60;99.90;;;;;;5028087;28;20061;-75
2022/11/28 06:31:22;;;;;;;13.52;4.20;;;6.50;99.90;;;;;;5020162;28;20040;-77
2022/11/28 06:33:48;;;;;;;14.52;4.30;;;6.50;99.90;;;;;;5032946;28;20311;-77
2022/11/28 06:36:15;;;;;;;9.40;3.92;;;6.50;99.90;;;;;;5032744;28;20036;-76
2022/11/28 06:38:41;;;;;;;15.77;4.13;;;6.50;99.90;;;;;;5022240;28;20030;-75
2022/11/28 06:41:09;;;;;;;38.50;5.15;;;6.40;99.90;;;;;;5024722;28;20418;-77
2022/11/28 06:43:35;;;;;;;24.05;3.40;;;6.40;99.90;;;;;;5020870;28;20084;-77
2022/11/28 06:46:01;;;;;;;23.40;3.25;;;6.30;99.90;;;;;;5028301;28;20033;-76
2022/11/28 06:48:27;;;;;;;11.27;2.33;;;6.30;99.90;;;;;;5024522;28;20052;-76
2022/11/28 06:50:52;;;;;;;17.33;2.83;;;6.40;99.90;;;;;;5015321;28;20033;-76
2022/11/28 06:53:19;;;;;;;14.68;2.97;;;6.40;99.90;;;;;;5030499;28;20037;-75
2022/11/28 06:55:45;;;;;;;8.43;2.22;;;6.40;99.90;;;;;;5032172;28;20084;-76
2022/11/28 06:58:11;;;;;;;16.30;3.15;;;6.50;99.90;;;;;;5014078;28;20033;-76
2022/11/28 07:00:37;;;;;;;15.80;3.58;;;6.50;99.90;;;;;;5023237;28;20041;-75
2022/11/28 07:03:02;;;;;;;13.48;2.90;;;6.50;99.90;;;;;;5033981;28;20045;-75
2022/11/28 07:05:29;;;;;;;19.65;3.35;;;6.60;99.90;;;;;;5028853;28;20111;-76
2022/11/28 07:07:56;;;;;;;16.23;3.28;;;6.50;99.90;;;;;;5030440;28;20115;-75
2022/11/28 07:10:23;;;;;;;17.60;3.95;;;6.50;99.90;;;;;;5033240;28;20036;-76
2022/11/28 07:12:57;;;;;;;13.55;3.65;;;6.50;99.90;;;;;;5027309;28;20026;-74
2022/11/28 07:15:23;;;;;;;14.13;3.55;;;6.50;99.90;;;;;;5034289;28;20174;-75
2022/11/28 07:17:49;;;;;;;21.52;4.32;;;6.50;99.90;;;;;;5013703;28;20034;-74
2022/11/28 07:20:14;;;;;;;23.40;4.63;;;6.50;99.90;;;;;;5028053;28;20383;-74
2022/11/28 07:22:41;;;;;;;13.00;3.95;;;6.40;99.90;;;;;;5021111;28;20021;-73
2022/11/28 07:25:07;;;;;;;18.27;3.10;;;6.30;99.90;;;;;;5017462;28;20569;-74
2022/11/28 07:27:32;;;;;;;18.80;4.20;;;6.40;99.90;;;;;;5020359;28;20029;-74
2022/11/28 07:29:58;;;;;;;21.95;3.90;;;6.40;99.90;;;;;;5026372;28;20488;-74
2022/11/28 07:32:23;;;;;;;14.13;3.30;;;6.40;99.90;;;;;;5048314;28;20041;-75
2022/11/28 07:34:49;;;;;;;13.15;3.63;;;6.40;99.90;;;;;;5044614;28;20040;-75
2022/11/28 07:37:15;;;;;;;16.40;3.40;;;6.40;99.90;;;;;;5020455;28;20041;-75
2022/11/28 07:39:43;;;;;;;20.20;4.28;;;6.50;99.90;;;;;;5024302;28;20026;-74
2022/11/28 07:42:09;;;;;;;20.98;4.07;;;6.40;99.90;;;;;;5026983;28;20411;-74
2022/11/28 07:44:34;;;;;;;21.20;3.88;;;6.40;99.90;;;;;;5014779;28;20118;-74
2022/11/28 07:47:00;;;;;;;20.77;3.67;;;6.40;99.90;;;;;;5038600;28;20049;-74
2022/11/28 07:49:25;;;;;;;16.20;3.35;;;6.40;99.90;;;;;;5021695;28;20033;-75
2022/11/28 07:51:51;;;;;;;18.63;3.58;;;6.40;99.90;;;;;;5020102;28;20098;-74
2022/11/28 07:54:17;;;;;;;11.38;3.05;;;6.40;99.90;;;;;;5021865;28;20087;-73
2022/11/28 07:56:42;;;;;;;14.27;3.30;;;6.50;99.90;;;;;;5027413;28;20139;-75
2022/11/28 07:59:08;;;;;;;12.85;3.00;;;6.70;99.90;;;;;;5065670;28;20029;-75
2022/11/28 08:01:35;;;;;;;17.90;1.95;;;7.00;99.90;;;;;;5016397;28;20053;-76
2022/11/28 08:04:02;;;;;;;11.68;2.40;;;7.60;99.90;;;;;;5025154;28;20091;-75
2022/11/28 08:06:29;;;;;;;12.32;1.67;;;8.00;99.90;;;;;;5013562;28;20034;-76
2022/11/28 08:08:56;;;;;;;9.25;1.73;;;8.20;99.90;;;;;;5023267;28;20120;-76
2022/11/28 08:11:23;;;;;;;8.32;1.60;;;8.30;99.90;;;;;;5013456;28;20041;-75
2022/11/28 08:13:49;;;;;;;8.23;1.40;;;8.40;99.90;;;;;;5017028;28;20030;-74
2022/11/28 08:16:18;;;;;;;12.15;1.65;;;8.40;99.90;;;;;;5010811;28;20022;-75
2022/11/28 08:18:44;;;;;;;11.38;1.73;;;8.30;99.90;;;;;;5023202;28;20041;-75
2022/11/28 08:21:22;;;;;;;10.52;1.40;;;8.20;99.90;;;;;;5018397;28;20026;-75
2022/11/28 08:23:50;;;;;;;9.00;1.80;;;8.20;99.90;;;;;;5028099;28;20084;-75
2022/11/28 08:26:17;;;;;;;10.98;2.20;;;8.10;99.90;;;;;;5005136;28;20045;-76
2022/11/28 08:28:43;;;;;;;10.30;1.88;;;8.00;99.90;;;;;;5024204;28;20040;-75
2022/11/28 08:31:15;;;;;;;15.88;1.90;;;8.00;99.90;;;;;;5025254;28;20119;-76
2022/11/28 08:33:41;;;;;;;7.32;1.50;;;7.90;99.90;;;;;;5024668;28;20103;-76
2022/11/28 08:36:09;;;;;;;11.32;1.85;;;7.90;99.90;;;;;;5028753;28;20457;-75
2022/11/28 08:38:36;;;;;;;13.35;1.90;;;7.80;99.90;;;;;;5028487;28;20026;-74
2022/11/28 08:41:15;;;;;;;13.60;2.67;;;7.90;99.90;;;;;;5024455;28;20034;-76
2022/11/28 08:43:41;;;;;;;12.40;2.25;;;7.90;99.90;;;;;;5016632;28;20104;-75
2022/11/28 08:46:13;;;;;;;12.23;2.53;;;8.00;99.90;;;;;;5021515;28;20484;-74
2022/11/28 08:48:40;;;;;;;12.32;2.13;;;8.10;99.90;;;;;;5015447;28;20037;-75
2022/11/28 08:51:06;;;;;;;7.03;1.80;;;8.30;99.90;;;;;;5013774;28;20041;-75
2022/11/28 08:53:32;;;;;;;9.05;1.70;;;8.40;99.90;;;;;;5019136;28;20709;-75
2022/11/28 08:55:58;;;;;;;7.70;1.70;;;8.50;99.90;;;;;;5014045;28;20038;-75
2022/11/28 08:58:24;;;;;;;9.88;1.88;;;8.70;99.90;;;;;;5036972;28;20072;-75
2022/11/28 09:00:49;;;;;;;10.57;2.10;;;8.90;99.90;;;;;;5012901;28;20118;-75
2022/11/28 09:03:17;;;;;;;11.10;2.50;;;9.20;99.90;;;;;;5029325;28;20631;-75
2022/11/28 09:05:45;;;;;;;16.33;2.63;;;9.30;99.90;;;;;;5015895;28;20175;-75
2022/11/28 09:08:14;;;;;;;9.77;1.73;;;9.50;99.90;;;;;;5011803;28;20546;-75
2022/11/28 09:10:41;;;;;;;8.10;1.67;;;9.70;99.90;;;;;;5024838;28;20033;-75
2022/11/28 09:13:07;;;;;;;8.25;1.70;;;10.00;99.90;;;;;;5024126;28;20625;-74
2022/11/28 09:15:38;;;;;;;10.13;1.40;;;10.40;99.90;;;;;;5027223;28;20030;-75
2022/11/28 09:18:03;;;;;;;8.15;1.55;;;10.60;99.90;;;;;;5024006;28;20465;-75
2022/11/28 09:20:29;;;;;;;8.48;1.50;;;10.80;99.90;;;;;;5025046;28;20068;-75
2022/11/28 09:22:54;;;;;;;4.90;1.00;;;11.10;99.90;;;;;;5020228;28;20508;-75
2022/11/28 09:25:20;;;;;;;6.90;1.33;;;11.00;99.90;;;;;;5025587;28;20037;-75
2022/11/28 09:27:45;;;;;;;9.98;1.17;;;11.20;99.90;;;;;;5027749;28;20065;-75
2022/11/28 09:30:11;;;;;;;7.18;1.35;;;11.30;99.90;;;;;;5011809;28;20026;-75
2022/11/28 09:34:50;;;;;;;5.55;1.05;;;12.00;99.90;;;;;;5091120;27;20479;-75
2022/11/28 09:41:55;;;;;;;9.73;1.33;;;11.30;99.90;;;;;;5083080;27;1263093;-74
2022/11/28 09:44:44;;;;;;;5.55;1.27;;;11.00;99.90;;;;;;5134410;27;20031;-74
2022/11/28 09:47:23;;;;;;;8.07;1.70;;;10.90;99.90;;;;;;5124117;27;20518;-74
2022/11/28 09:49:57;;;;;;;8.30;0.93;;;10.50;99.90;;;;;;5109683;28;20065;-75
2022/11/28 09:52:28;;;;;;;5.32;1.00;;;10.30;99.90;;;;;;5118903;28;20753;-75
2022/11/28 09:55:16;;;;;;;7.95;1.23;;;10.10;99.90;;;;;;5110482;28;20024;-73
2022/11/28 10:00:21;;;;;;;6.50;1.10;;;9.60;99.90;;;;;;5058587;28;20878;-74
2022/11/28 10:03:15;;;;;;;10.17;1.90;;;9.70;99.90;;;;;;5029891;28;20032;-74
2022/11/28 10:06:09;;;;;;;6.97;2.10;;;9.90;99.90;;;;;;5034429;28;20037;-75
2022/11/28 10:08:50;;;;;;;7.18;1.92;;;9.50;99.90;;;;;;5038633;28;20036;-75
2022/11/28 10:11:53;;;;;;;5.90;1.50;;;9.60;99.90;;;;;;5037407;28;20033;-75
2022/11/28 10:14:39;;;;;;;8.75;1.48;;;9.60;99.90;;;;;;5032696;28;20029;-74
2022/11/28 10:17:17;;;;;;;7.07;1.40;;;9.70;99.90;;;;;;5034385;28;20029;-74
2022/11/28 10:19:50;;;;;;;6.38;1.15;;;9.60;99.90;;;;;;5061786;28;20048;-75
2022/11/28 10:22:21;;;;;;;7.50;1.15;;;9.70;99.90;;;;;;5062471;28;20036;-74
2022/11/28 10:27:03;;;;;;;5.80;1.35;;;9.90;99.90;;;;;;5100412;27;1264358;-74
2022/11/28 10:29:31;;;;;;;8.43;1.48;;;10.00;99.90;;;;;;5122261;27;20796;-75
2022/11/28 10:32:00;;;;;;;7.03;1.30;;;10.40;99.90;;;;;;5104075;28;20659;-74
2022/11/28 10:34:42;;;;;;;8.55;1.50;;;10.90;99.90;;;;;;5106076;28;20028;-75
2022/11/28 10:37:30;;;;;;;9.13;1.30;;;11.20;99.90;;;;;;5119965;28;20455;-75
2022/11/28 10:40:10;;;;;;;9.15;1.20;;;11.30;99.90;;;;;;5103208;28;20168;-75
2022/11/28 10:42:58;;;;;;;6.97;1.13;;;11.20;99.90;;;;;;5105108;28;20031;-74
2022/11/28 10:45:30;;;;;;;7.80;1.02;;;11.30;99.90;;;;;;5108778;28;20046;-75
2022/11/28 10:48:05;;;;;;;9.50;1.17;;;11.40;99.90;;;;;;5122036;28;20126;-73
2022/11/28 10:50:37;;;;;;;5.43;0.93;;;11.40;99.90;;;;;;5107690;28;20761;-75
2022/11/28 10:53:26;;;;;;;8.07;1.15;;;11.60;99.90;;;;;;5120700;28;20031;-74
2022/11/28 10:56:15;;;;;;;9.52;1.45;;;11.90;99.90;;;;;;5107876;28;20070;-76
2022/11/28 10:59:09;;;;;;;4.75;1.30;;;12.10;99.90;;;;;;5116710;28;20089;-74
2022/11/28 11:01:38;;;;;;;4.90;1.10;;;12.20;99.90;;;;;;5121303;27;20073;-74
2022/11/28 11:04:04;;;;;;;4.70;1.25;;;12.20;99.90;;;;;;5111449;27;20035;-75
2022/11/28 11:06:30;;;;;;;2.97;0.73;;;12.30;99.90;;;;;;5118745;28;20031;-75
2022/11/28 11:08:56;;;;;;;4.72;0.77;;;12.20;99.90;;;;;;5116127;28;20035;-74
2022/11/28 11:11:26;;;;;;;6.18;0.77;;;12.30;99.90;;;;;;5108960;27;20024;-74
2022/11/28 11:14:04;;;;;;;6.03;0.90;;;12.30;99.90;;;;;;5104827;28;20042;-74
2022/11/28 11:16:50;;;;;;;7.32;0.90;;;12.30;99.90;;;;;;5116326;28;20089;-74
2022/11/28 11:19:25;;;;;;;6.68;1.50;;;12.50;99.90;;;;;;5105218;28;20028;-76
2022/11/28 11:22:02;;;;;;;6.57;0.65;;;12.80;99.90;;;;;;5118217;28;20032;-77
2022/11/28 11:24:28;;;;;;;7.25;0.80;;;13.20;99.90;;;;;;5121533;28;20035;-76
2022/11/28 11:27:11;;;;;;;4.32;0.60;;;13.20;99.90;;;;;;5105873;28;20525;-75
2022/11/28 11:29:37;;;;;;;8.23;1.00;;;13.30;99.90;;;;;;5106905;28;20059;-75
2022/11/28 11:32:05;;;;;;;6.30;0.70;;;12.90;99.90;;;;;;5107595;28;20107;-74
2022/11/28 11:34:43;;;;;;;4.78;0.95;;;12.70;99.90;;;;;;5122445;27;20524;-75
2022/11/28 11:37:30;;;;;;;5.68;0.65;;;12.30;99.90;;;;;;5106404;28;20027;-76
2022/11/28 11:39:56;;;;;;;7.07;0.82;;;12.30;99.90;;;;;;5093438;28;20054;-76
2022/11/28 11:42:25;;;;;;;6.72;0.70;;;12.10;99.90;;;;;;5098901;28;20669;-74
2022/11/28 11:44:51;;;;;;;5.60;0.70;;;;;;;;;;5101965;28;20043;-75
2022/11/28 11:47:17;;;;;;;4.72;0.75;;;12.10;99.90;;;;;;5089089;28;20093;-76
2022/11/28 11:49:48;;;;;;;4.43;0.50;;;12.10;99.90;;;;;;5093974;28;20020;-75
2022/11/28 11:52:20;;;;;;;4.88;0.52;;;11.00;99.90;;;;;;5100789;28;20032;-76
2022/11/28 11:54:46;;;;;;;4.55;0.30;;;11.40;99.90;;;;;;5105114;28;20031;-75
2022/11/28 11:57:22;;;;;;;3.25;0.40;;;11.30;99.90;;;;;;5109790;28;20567;-76
2022/11/28 11:59:57;;;;;;;4.88;0.70;;;11.10;99.90;;;;;;5108425;28;20035;-74
2022/11/28 12:02:45;;;;;;;5.55;0.68;;;11.10;99.90;;;;;;5107479;28;20032;-74
2022/11/28 12:05:20;;;;;;;8.45;0.77;;;10.90;99.90;;;;;;5098996;28;20684;-75
2022/11/28 12:08:18;;;;;;;5.30;0.50;;;10.90;99.90;;;;;;5103822;28;20110;-75
2022/11/28 12:11:19;;;;;;;5.07;0.45;;;9.90;99.90;;;;;;5046040;28;20032;-75
2022/11/28 12:16:37;;;;;;;8.30;1.95;;;10.90;99.90;;;;;;5106314;27;20383;-75
2022/11/28 12:19:13;;;;;;;8.32;3.13;;;10.90;99.90;;;;;;5089444;28;20436;-74
2022/11/28 12:21:38;;;;;;;10.07;3.92;;;10.90;99.90;;;;;;5096881;28;20115;-75
2022/11/28 12:24:12;;;;;;;7.32;1.50;;;10.90;99.90;;;;;;5092848;28;20446;-77
2022/11/28 12:27:24;;;;;;;5.95;0.73;;;10.80;99.90;;;;;;5071162;28;20028;-76
2022/11/28 12:30:05;;;;;;;5.70;0.82;;;10.80;99.90;;;;;;5071280;28;20541;-76
2022/11/28 12:33:04;;;;;;;7.18;0.88;;;10.80;99.90;;;;;;5103819;28;20023;-75
2022/11/28 12:35:41;;;;;;;6.57;0.80;;;10.70;99.90;;;;;;5103890;28;20023;-76
2022/11/28 12:38:18;;;;;;;4.82;0.60;;;10.60;99.90;;;;;;5103985;28;20456;-74
2022/11/28 12:41:27;;;;;;;9.20;1.00;;;10.50;99.90;;;;;;5104442;28;20063;-75
2022/11/28 12:43:56;;;;;;;3.50;0.60;;;10.40;99.90;;;;;;5002500;28;20030;-75
2022/11/28 12:46:38;;;;;;;7.95;0.80;;;10.40;99.90;;;;;;4984625;28;20037;-76
2022/11/28 12:49:24;;;;;;;2.85;0.80;;;10.40;99.90;;;;;;5066313;28;20595;-75
2022/11/28 12:52:08;;;;;;;3.55;0.80;;;10.70;99.90;;;;;;5086222;28;20028;-73
2022/11/28 12:55:12;;;;;;;4.40;0.80;;;10.90;99.90;;;;;;5086156;28;20028;-75
2022/11/28 12:57:47;;;;;;;6.68;0.70;;;11.30;99.90;;;;;;5086200;28;20047;-75
2022/11/28 13:00:25;;;;;;;5.03;0.50;;;11.50;99.90;;;;;;5104646;28;20028;-75
2022/11/28 13:03:00;;;;;;;4.25;0.55;;;11.80;99.90;;;;;;5086413;28;20063;-75
2022/11/28 13:06:04;;;;;;;4.20;0.77;;;11.90;99.90;;;;;;5081698;28;20085;-75
2022/11/28 13:08:58;;;;;;;6.05;0.95;;;12.00;99.90;;;;;;5073679;28;20054;-75
2022/11/28 13:12:09;;;;;;;3.63;0.60;;;12.00;99.90;;;;;;5111553;28;20031;-75
2022/11/28 13:14:54;;;;;;;4.82;0.80;;;11.90;99.90;;;;;;5068195;28;20078;-74
2022/11/28 13:17:54;;;;;;;3.17;0.60;;;11.90;99.90;;;;;;5088500;28;20059;-75
2022/11/28 13:20:44;;;;;;;4.15;0.75;;;12.10;99.90;;;;;;5103858;28;20127;-74
2022/11/28 13:23:16;;;;;;;4.65;0.90;;;12.20;99.90;;;;;;5086732;28;20032;-75
2022/11/28 13:25:52;;;;;;;4.72;0.80;;;12.50;99.90;;;;;;5086407;28;20036;-75
2022/11/28 13:28:30;;;;;;;3.50;0.47;;;12.70;99.90;;;;;;5075959;28;20063;-74
2022/11/28 13:31:23;;;;;;;6.07;0.68;;;12.80;99.90;;;;;;5056016;28;20470;-75